createdAt,value
2023-08-18T00:01:07.427Z,39.63
2023-08-18T00:03:36.724Z,72.40
2023-08-18T00:06:06.509Z,57.97
2023-08-18T00:08:37.769Z,50.67
2023-08-18T00:11:06.949Z,46.35
2023-08-18T00:13:36.278Z,51.08
2023-08-18T00:16:05.826Z,35.00
2023-08-18T00:18:34.970Z,35.35
2023-08-18T00:21:04.151Z,33.72
2023-08-18T00:23:33.313Z,28.48
2023-08-18T00:26:04.610Z,33.67
2023-08-18T00:28:33.797Z,29.42
2023-08-18T00:31:03.223Z,33.30
2023-08-18T00:33:32.720Z,27.98
2023-08-18T00:36:02.205Z,24.55
2023-08-18T00:38:31.635Z,25.15
2023-08-18T00:41:00.893Z,26.40
2023-08-18T00:43:31.644Z,24.42
2023-08-18T00:46:01.259Z,23.98
2023-08-18T00:48:31.036Z,27.08
2023-08-18T00:51:00.934Z,48.20
2023-08-18T00:53:30.252Z,32.85
2023-08-18T00:55:59.818Z,23.75
2023-08-18T00:58:30.405Z,26.73
2023-08-18T01:01:01.111Z,32.85
2023-08-18T01:03:31.130Z,25.48
2023-08-18T01:06:01.016Z,26.15
2023-08-18T01:08:30.418Z,25.17
2023-08-18T01:11:04.868Z,25.73
2023-08-18T01:13:38.850Z,21.85
2023-08-18T01:16:16.610Z,28.63
2023-08-18T01:18:46.568Z,21.40
2023-08-18T01:21:16.659Z,29.40
2023-08-18T01:23:46.080Z,33.40
2023-08-18T01:26:14.636Z,22.73
2023-08-18T01:28:44.482Z,22.55
2023-08-18T01:31:15.775Z,32.17
2023-08-18T01:33:48.051Z,23.05
2023-08-18T01:36:20.558Z,23.75
2023-08-18T01:38:52.929Z,23.70
2023-08-18T01:41:24.955Z,21.77
2023-08-18T01:43:53.972Z,24.17
2023-08-18T01:46:22.428Z,45.42
2023-08-18T01:48:50.931Z,26.90
2023-08-18T01:51:19.074Z,21.60
2023-08-18T01:53:47.198Z,20.40
2023-08-18T01:56:16.721Z,25.38
2023-08-18T01:58:44.974Z,20.98
2023-08-18T02:01:13.605Z,22.63
2023-08-18T02:03:42.390Z,21.95
2023-08-18T02:06:11.012Z,17.33
2023-08-18T02:08:39.595Z,35.30
2023-08-18T02:11:07.938Z,26.38
2023-08-18T02:13:37.373Z,21.58
2023-08-18T02:16:05.883Z,17.67
2023-08-18T02:18:34.309Z,20.15
2023-08-18T02:21:03.766Z,24.05
2023-08-18T02:23:32.058Z,23.52
2023-08-18T02:26:04.165Z,22.48
2023-08-18T02:28:32.646Z,18.90
2023-08-18T02:31:03.593Z,20.98
2023-08-18T02:33:31.851Z,19.10
2023-08-18T02:36:01.134Z,48.08
2023-08-18T02:38:29.911Z,26.42
2023-08-18T02:40:58.336Z,22.33
2023-08-18T02:43:26.933Z,18.75
2023-08-18T02:45:58.738Z,20.80
2023-08-18T02:48:29.701Z,17.70
2023-08-18T02:51:04.974Z,18.65
2023-08-18T02:53:33.269Z,18.67
2023-08-18T02:56:01.684Z,26.77
2023-08-18T02:58:29.632Z,18.67
2023-08-18T03:00:58.126Z,19.67
2023-08-18T03:03:26.234Z,16.52
2023-08-18T03:05:55.675Z,21.60
2023-08-18T03:08:23.881Z,17.60
2023-08-18T03:10:58.389Z,30.23
2023-08-18T03:13:26.724Z,25.38
2023-08-18T03:15:55.087Z,47.47
2023-08-18T03:18:23.203Z,18.63
2023-08-18T03:20:51.872Z,21.60
2023-08-18T03:23:21.796Z,26.40
2023-08-18T03:25:49.875Z,40.78
2023-08-18T03:28:18.291Z,27.05
2023-08-18T03:30:46.571Z,28.65
2023-08-18T03:33:14.756Z,36.50
2023-08-18T03:35:42.897Z,25.95
2023-08-18T03:38:10.971Z,29.75
2023-08-18T03:40:40.392Z,31.65
2023-08-18T03:43:08.795Z,36.63
2023-08-18T03:45:37.709Z,53.42
2023-08-18T03:48:06.391Z,27.50
2023-08-18T03:50:34.478Z,35.47
2023-08-18T03:53:04.263Z,31.38
2023-08-18T03:55:32.472Z,29.70
2023-08-18T03:58:02.202Z,58.28
2023-08-18T04:00:30.354Z,29.33
2023-08-18T04:02:58.837Z,29.33
2023-08-18T04:05:27.240Z,50.15
2023-08-18T04:07:56.014Z,33.08
2023-08-18T04:10:24.488Z,33.72
2023-08-18T04:12:52.568Z,31.58
2023-08-18T04:15:22.362Z,37.95
2023-08-18T04:17:50.440Z,38.53
2023-08-18T04:20:18.818Z,42.78
2023-08-18T04:22:47.097Z,39.03
2023-08-18T04:25:15.452Z,32.83
2023-08-18T04:27:43.580Z,30.27
2023-08-18T04:30:12.709Z,29.02
2023-08-18T04:32:42.277Z,20.50
2023-08-18T04:35:11.826Z,21.15
2023-08-18T04:37:39.877Z,23.38
2023-08-18T04:40:09.109Z,24.50
2023-08-18T04:42:37.162Z,21.95
2023-08-18T04:45:06.543Z,19.35
2023-08-18T04:47:34.866Z,18.92
2023-08-18T04:50:05.774Z,21.90
2023-08-18T04:52:33.875Z,21.15
2023-08-18T04:55:02.273Z,22.13
2023-08-18T04:57:30.355Z,25.70
2023-08-18T04:59:58.393Z,45.85
2023-08-18T05:02:28.170Z,33.25
2023-08-18T05:04:56.955Z,28.38
2023-08-18T05:07:27.839Z,28.58
2023-08-18T05:09:56.288Z,30.25
2023-08-18T05:12:24.339Z,31.70
2023-08-18T05:14:53.619Z,20.83
2023-08-18T05:17:22.077Z,21.05
2023-08-18T05:19:50.181Z,20.65
2023-08-18T05:22:18.250Z,23.85
2023-08-18T05:24:49.186Z,33.40
2023-08-18T05:27:17.272Z,47.80
2023-08-18T05:29:45.379Z,34.22
2023-08-18T05:32:13.460Z,25.85
2023-08-18T05:34:41.649Z,28.05
2023-08-18T05:37:09.835Z,29.90
2023-08-18T05:39:37.894Z,28.25
2023-08-18T05:42:08.032Z,33.45
2023-08-18T05:44:37.132Z,31.77
2023-08-18T05:47:06.977Z,31.95
2023-08-18T05:49:35.120Z,28.90
2023-08-18T05:52:04.109Z,26.23
2023-08-18T05:54:34.640Z,24.75
2023-08-18T05:57:03.719Z,31.55
2023-08-18T05:59:37.104Z,27.30
2023-08-18T06:02:05.554Z,24.23
2023-08-18T06:04:33.870Z,28.80
2023-08-18T06:07:02.277Z,24.95
2023-08-18T06:09:30.535Z,27.48
2023-08-18T06:11:58.768Z,22.02
2023-08-18T06:14:27.259Z,22.75
2023-08-18T06:16:56.806Z,24.38
2023-08-18T06:19:25.272Z,23.20
2023-08-18T06:21:53.480Z,26.25
2023-08-18T06:24:21.567Z,27.48
2023-08-18T06:26:49.791Z,27.63
2023-08-18T06:29:17.942Z,32.03
2023-08-18T06:31:46.122Z,27.85
2023-08-18T06:34:27.558Z,24.85
2023-08-18T06:36:56.835Z,29.77
2023-08-18T06:39:25.166Z,26.90
2023-08-18T06:41:53.238Z,26.00
2023-08-18T06:44:22.360Z,26.92
2023-08-18T06:46:50.615Z,26.25
2023-08-18T06:49:18.717Z,27.50
2023-08-18T06:51:48.413Z,24.52
2023-08-18T06:54:16.567Z,19.90
2023-08-18T06:56:45.095Z,28.38
2023-08-18T06:59:14.375Z,29.95
2023-08-18T07:01:42.968Z,23.95
2023-08-18T07:04:12.225Z,23.35
2023-08-18T07:06:45.257Z,24.13
2023-08-18T07:09:15.407Z,22.33
2023-08-18T07:11:43.817Z,21.42
2023-08-18T07:14:13.983Z,24.45
2023-08-18T07:16:42.092Z,25.23
2023-08-18T07:19:10.182Z,23.95
2023-08-18T07:21:38.298Z,23.63
2023-08-18T07:24:06.950Z,21.25
2023-08-18T07:26:36.578Z,20.15
2023-08-18T07:29:05.704Z,20.95
2023-08-18T07:31:35.900Z,21.92
2023-08-18T07:34:04.768Z,19.48
2023-08-18T07:36:34.246Z,19.85
2023-08-18T07:39:04.532Z,20.13
2023-08-18T07:41:34.356Z,22.65
2023-08-18T07:44:03.782Z,21.25
2023-08-18T07:46:32.256Z,23.98
2023-08-18T07:49:00.646Z,22.92
2023-08-18T07:51:28.866Z,24.88
2023-08-18T07:53:57.076Z,24.85
2023-08-18T07:56:25.808Z,25.88
2023-08-18T07:58:56.653Z,25.30
2023-08-18T08:01:28.794Z,28.08
2023-08-18T08:03:59.040Z,24.45
2023-08-18T08:06:27.328Z,23.00
2023-08-18T08:08:56.495Z,29.35
2023-08-18T08:11:24.558Z,23.73
2023-08-18T08:13:53.846Z,26.33
2023-08-18T08:16:23.719Z,22.80
2023-08-18T08:18:54.227Z,22.30
2023-08-18T08:21:24.727Z,21.63
2023-08-18T08:23:53.990Z,19.20
2023-08-18T08:26:24.403Z,20.77
2023-08-18T08:28:52.746Z,17.73
2023-08-18T08:31:21.135Z,18.33
2023-08-18T08:33:49.342Z,17.80
2023-08-18T08:36:18.925Z,18.13
2023-08-18T08:38:47.466Z,18.40
2023-08-18T08:41:15.906Z,19.88
2023-08-18T08:43:45.618Z,17.73
2023-08-18T08:46:16.367Z,14.90
2023-08-18T08:48:48.528Z,16.90
2023-08-18T08:51:20.457Z,16.48
2023-08-18T08:53:52.860Z,16.00
2023-08-18T08:56:23.088Z,16.02
2023-08-18T08:58:53.635Z,17.33
2023-08-18T09:01:24.180Z,15.80
2023-08-18T09:03:53.378Z,15.77
2023-08-18T09:06:23.079Z,15.07
2023-08-18T09:08:51.280Z,15.93
2023-08-18T09:11:24.496Z,15.48
2023-08-18T09:13:52.844Z,14.05
2023-08-18T09:18:57.040Z,13.15
2023-08-18T09:21:27.135Z,11.35
2023-08-18T09:23:57.225Z,12.60
2023-08-18T09:26:25.408Z,11.63
2023-08-18T09:28:53.422Z,10.57
2023-08-18T09:31:21.895Z,11.35
2023-08-18T09:33:51.324Z,12.00
2023-08-18T09:36:19.833Z,10.23
2023-08-18T09:38:49.267Z,8.38
2023-08-18T09:41:17.812Z,8.02
2023-08-18T09:43:46.021Z,9.38
2023-08-18T09:46:17.383Z,8.65
2023-08-18T09:48:48.879Z,10.02
2023-08-18T09:51:22.218Z,10.27
2023-08-18T09:53:58.890Z,7.93
2023-08-18T09:56:32.359Z,7.65
2023-08-18T09:59:08.607Z,9.80
2023-08-18T10:01:38.299Z,7.45
2023-08-18T10:04:09.780Z,8.38
2023-08-18T10:06:40.361Z,8.15
2023-08-18T10:09:11.935Z,7.68
2023-08-18T10:11:52.080Z,7.68
2023-08-18T10:14:23.545Z,7.60
2023-08-18T10:16:53.892Z,7.95
2023-08-18T10:19:52.620Z,7.10
2023-08-18T10:22:22.170Z,6.25
2023-08-18T10:24:53.168Z,6.95
2023-08-18T10:27:49.046Z,5.78
2023-08-18T10:30:31.090Z,6.75
2023-08-18T10:33:05.110Z,6.68
2023-08-18T10:35:33.408Z,7.00
2023-08-18T10:38:04.116Z,6.70
2023-08-18T10:40:35.973Z,6.65
2023-08-18T10:43:09.619Z,6.78
2023-08-18T10:45:38.443Z,6.00
2023-08-18T10:48:09.105Z,5.85
2023-08-18T10:50:40.974Z,6.00
2023-08-18T10:53:12.684Z,7.45
2023-08-18T10:55:45.568Z,5.85
2023-08-18T10:58:16.107Z,5.57
2023-08-18T11:00:45.217Z,5.78
2023-08-18T11:03:14.934Z,5.60
2023-08-18T11:05:43.301Z,5.32
2023-08-18T11:08:12.067Z,5.32
2023-08-18T11:10:44.314Z,4.68
2023-08-18T11:13:22.796Z,5.30
2023-08-18T11:15:51.794Z,5.32
2023-08-18T11:18:21.727Z,6.07
2023-08-18T11:20:52.254Z,4.90
2023-08-18T11:23:20.753Z,4.90
2023-08-18T11:25:50.259Z,4.53
2023-08-18T11:28:19.527Z,4.65
2023-08-18T11:30:47.935Z,4.68
2023-08-18T11:33:16.498Z,3.95
2023-08-18T11:35:46.012Z,7.13
2023-08-18T11:38:14.316Z,4.03
2023-08-18T11:40:44.802Z,6.55
2023-08-18T11:43:15.623Z,4.20
2023-08-18T11:45:44.033Z,4.97
2023-08-18T11:48:14.907Z,4.20
2023-08-18T11:50:43.999Z,3.33
2023-08-18T11:53:12.625Z,5.72
2023-08-18T11:55:43.858Z,4.22
2023-08-18T11:58:15.982Z,9.13
2023-08-18T12:00:47.836Z,4.10
2023-08-18T12:03:23.789Z,3.30
2023-08-18T12:05:52.348Z,3.65
2023-08-18T12:08:20.658Z,5.50
2023-08-18T12:10:52.060Z,3.50
2023-08-18T12:13:20.828Z,3.70
2023-08-18T12:15:51.156Z,3.45
2023-08-18T12:18:19.862Z,4.50
2023-08-18T12:20:48.344Z,3.38
2023-08-18T12:23:16.478Z,3.60
2023-08-18T12:25:44.767Z,3.47
2023-08-18T12:28:12.854Z,3.13
2023-08-18T12:30:40.978Z,3.63
2023-08-18T12:33:10.770Z,4.80
2023-08-18T12:35:38.894Z,3.17
2023-08-18T12:38:08.975Z,3.35
2023-08-18T12:40:37.265Z,2.55
2023-08-18T12:43:05.824Z,3.55
2023-08-18T12:45:34.608Z,3.92
2023-08-18T12:48:04.462Z,3.60
2023-08-18T12:50:33.916Z,3.53
2023-08-18T12:53:02.223Z,3.60
2023-08-18T12:55:31.462Z,5.07
2023-08-18T12:58:00.897Z,5.22
2023-08-18T13:00:29.060Z,3.22
2023-08-18T13:02:57.210Z,3.33
2023-08-18T13:05:25.560Z,3.35
2023-08-18T13:07:55.181Z,3.63
2023-08-18T13:10:23.460Z,3.33
2023-08-18T13:12:51.602Z,3.67
2023-08-18T13:15:20.570Z,4.10
2023-08-18T13:17:48.937Z,3.95
2023-08-18T13:20:17.276Z,3.17
2023-08-18T13:22:45.455Z,3.22
2023-08-18T13:25:16.826Z,3.75
2023-08-18T13:27:45.952Z,5.22
2023-08-18T13:30:14.790Z,3.85
2023-08-18T13:32:43.001Z,3.58
2023-08-18T13:35:12.092Z,7.15
2023-08-18T13:37:40.906Z,7.47
2023-08-18T13:40:10.221Z,3.67
2023-08-18T13:42:39.672Z,3.88
2023-08-18T13:45:09.805Z,6.25
2023-08-18T13:47:38.187Z,7.22
2023-08-18T13:50:07.356Z,3.80
2023-08-18T13:52:35.648Z,3.78
2023-08-18T13:55:04.332Z,3.95
2023-08-18T13:57:32.986Z,3.85
2023-08-18T14:00:02.781Z,3.83
2023-08-18T14:02:31.176Z,4.78
2023-08-18T14:04:59.777Z,4.65
2023-08-18T14:07:29.191Z,4.05
2023-08-18T14:09:59.560Z,4.10
2023-08-18T14:12:28.330Z,5.90
2023-08-18T14:14:56.834Z,3.78
2023-08-18T14:17:40.912Z,4.45
2023-08-18T14:20:13.406Z,5.88
2023-08-18T14:22:43.825Z,3.58
2023-08-18T14:25:12.555Z,4.70
2023-08-18T14:27:41.624Z,4.47
2023-08-18T14:30:10.225Z,3.63
2023-08-18T14:32:40.110Z,4.35
2023-08-18T14:35:09.799Z,5.07
2023-08-18T14:37:39.412Z,3.72
2023-08-18T14:40:10.756Z,3.97
2023-08-18T14:42:39.953Z,3.72
2023-08-18T14:45:09.337Z,4.78
2023-08-18T14:47:40.425Z,3.78
2023-08-18T14:50:09.206Z,4.40
2023-08-18T14:52:37.491Z,3.42
2023-08-18T14:55:06.212Z,4.03
2023-08-18T14:57:35.246Z,3.25
2023-08-18T15:00:06.456Z,6.07
2023-08-18T15:02:35.236Z,2.95
2023-08-18T15:05:05.962Z,4.88
2023-08-18T15:07:34.532Z,3.33
2023-08-18T15:10:04.137Z,3.30
2023-08-18T15:12:32.664Z,4.03
2023-08-18T15:15:01.075Z,3.83
2023-08-18T15:17:29.393Z,4.20
2023-08-18T15:19:57.982Z,3.25
2023-08-18T15:22:27.530Z,3.88
2023-08-18T15:24:55.796Z,3.92
2023-08-18T15:27:23.934Z,4.63
2023-08-18T15:29:52.146Z,3.78
2023-08-18T15:32:20.238Z,3.40
2023-08-18T15:34:49.223Z,4.82
2023-08-18T15:37:17.755Z,3.08
2023-08-18T15:39:47.510Z,3.85
2023-08-18T15:42:16.057Z,4.95
2023-08-18T15:44:44.154Z,2.97
2023-08-18T15:47:12.206Z,3.97
2023-08-18T15:49:40.358Z,3.30
2023-08-18T15:52:08.465Z,2.53
2023-08-18T15:54:36.553Z,3.58
2023-08-18T15:57:06.114Z,4.38
2023-08-18T15:59:34.408Z,3.92
2023-08-18T16:02:02.470Z,4.57
2023-08-18T16:04:30.500Z,3.28
2023-08-18T16:06:58.615Z,2.47
2023-08-18T16:09:26.920Z,3.60
2023-08-18T16:11:55.061Z,4.03
2023-08-18T16:14:48.249Z,3.55
2023-08-18T16:17:14.062Z,3.38
2023-08-18T16:19:42.237Z,2.40
2023-08-18T16:22:10.453Z,3.25
2023-08-18T16:24:38.724Z,3.45
2023-08-18T16:27:07.138Z,9.38
2023-08-18T16:29:36.734Z,3.00
2023-08-18T16:32:05.799Z,3.92
2023-08-18T16:34:34.353Z,3.15
2023-08-18T16:37:02.443Z,3.85
2023-08-18T16:39:31.088Z,5.70
2023-08-18T16:42:00.312Z,2.90
2023-08-18T16:44:28.401Z,2.90
2023-08-18T16:46:59.108Z,5.10
2023-08-18T16:49:28.185Z,5.03
2023-08-18T16:51:57.455Z,3.90
2023-08-18T16:54:31.994Z,2.22
2023-08-18T16:57:00.296Z,3.22
2023-08-18T16:59:28.637Z,4.82
2023-08-18T17:01:58.133Z,4.60
2023-08-18T17:04:27.948Z,4.18
2023-08-18T17:06:56.542Z,4.57
2023-08-18T17:09:24.640Z,2.35
2023-08-18T17:11:52.793Z,4.18
2023-08-18T17:14:21.027Z,5.70
2023-08-18T17:16:49.136Z,6.13
2023-08-18T17:19:18.582Z,2.92
2023-08-18T17:21:46.780Z,5.55
2023-08-18T17:24:32.180Z,3.78
2023-08-18T17:27:00.271Z,4.95
2023-08-18T17:29:28.354Z,4.72
2023-08-18T17:31:56.496Z,6.07
2023-08-18T17:34:26.454Z,9.68
2023-08-18T17:36:55.286Z,2.97
2023-08-18T17:39:23.451Z,3.30
2023-08-18T17:41:51.637Z,8.05
2023-08-18T17:44:19.741Z,2.83
2023-08-18T17:46:48.506Z,3.92
2023-08-18T17:49:16.570Z,4.40
2023-08-18T17:51:49.476Z,6.53
2023-08-18T17:54:18.109Z,3.28
2023-08-18T17:56:46.871Z,5.88
2023-08-18T17:59:15.192Z,6.97
2023-08-18T18:01:43.338Z,3.88
2023-08-18T18:04:11.700Z,3.80
2023-08-18T18:06:39.897Z,4.88
2023-08-18T18:09:09.538Z,3.72
2023-08-18T18:11:37.717Z,3.17
2023-08-18T18:14:06.248Z,3.50
2023-08-18T18:16:34.304Z,4.35
2023-08-18T18:19:02.584Z,4.32
2023-08-18T18:21:30.785Z,3.45
2023-08-18T18:23:58.874Z,8.00
2023-08-18T18:26:30.996Z,5.32
2023-08-18T18:28:59.815Z,5.45
2023-08-18T18:31:29.917Z,4.78
2023-08-18T18:33:58.715Z,6.43
2023-08-18T18:36:26.929Z,8.75
2023-08-18T18:38:54.999Z,6.45
2023-08-18T18:41:23.142Z,6.70
2023-08-18T18:43:52.983Z,8.52
2023-08-18T18:46:21.260Z,6.85
2023-08-18T18:48:49.365Z,3.95
2023-08-18T18:51:17.509Z,3.08
2023-08-18T18:53:45.692Z,11.63
2023-08-18T18:56:14.204Z,4.00
2023-08-18T18:58:42.290Z,3.50
2023-08-18T19:01:11.753Z,5.70
2023-08-18T19:03:40.470Z,9.30
2023-08-18T19:06:09.430Z,5.78
2023-08-18T19:08:38.661Z,4.60
2023-08-18T19:11:07.219Z,5.45
2023-08-18T19:13:35.390Z,7.63
2023-08-18T19:16:08.146Z,4.95
2023-08-18T19:18:38.423Z,6.05
2023-08-18T19:21:06.893Z,4.35
2023-08-18T19:23:37.311Z,4.40
2023-08-18T19:26:06.277Z,6.32
2023-08-18T19:28:36.106Z,4.60
2023-08-18T19:31:04.997Z,4.07
2023-08-18T19:33:33.196Z,8.35
2023-08-18T19:36:02.781Z,5.50
2023-08-18T19:38:30.946Z,4.35
2023-08-18T19:40:59.737Z,7.35
2023-08-18T19:43:27.977Z,6.78
2023-08-18T19:45:57.731Z,5.95
2023-08-18T19:48:26.036Z,7.95
2023-08-18T19:50:54.908Z,5.93
2023-08-18T19:53:24.982Z,6.22
2023-08-18T19:55:53.274Z,7.00
2023-08-18T19:58:21.511Z,6.78
2023-08-18T20:00:50.089Z,6.68
2023-08-18T20:03:18.296Z,6.00
2023-08-18T20:05:46.747Z,5.82
2023-08-18T20:08:14.852Z,6.25
2023-08-18T20:10:44.298Z,5.05
2023-08-18T20:13:12.676Z,6.28
2023-08-18T20:15:40.776Z,5.88
2023-08-18T20:18:08.918Z,8.35
2023-08-18T20:20:36.955Z,5.07
2023-08-18T20:23:05.479Z,5.88
2023-08-18T20:25:33.609Z,6.15
2023-08-18T20:28:03.022Z,6.55
2023-08-18T20:30:31.210Z,5.53
2023-08-18T20:33:00.114Z,6.18
2023-08-18T20:35:28.611Z,5.78
2023-08-18T20:37:56.758Z,5.57
2023-08-18T20:40:24.906Z,6.13
2023-08-18T20:42:52.973Z,8.00
2023-08-18T20:45:22.581Z,6.00
2023-08-18T20:47:54.230Z,8.20
2023-08-18T20:50:22.721Z,9.20
2023-08-18T20:52:50.802Z,5.72
2023-08-18T20:55:19.330Z,6.35
2023-08-18T20:57:47.625Z,8.60
2023-08-18T21:00:17.383Z,6.80
2023-08-18T21:02:46.824Z,7.10
2023-08-18T21:05:14.881Z,8.13
2023-08-18T21:07:42.971Z,7.28
2023-08-18T21:10:12.854Z,6.28
2023-08-18T21:12:44.279Z,7.53
2023-08-18T21:15:13.177Z,8.70
2023-08-18T21:17:41.336Z,7.00
2023-08-18T21:20:15.088Z,8.27
2023-08-18T21:22:46.000Z,6.85
2023-08-18T21:25:16.399Z,7.05
2023-08-18T21:27:44.551Z,7.43
2023-08-18T21:30:15.258Z,8.95
2023-08-18T21:32:44.625Z,7.35
2023-08-18T21:35:15.840Z,9.90
2023-08-18T21:37:45.362Z,8.38
2023-08-18T21:40:14.157Z,8.02
2023-08-18T21:42:43.492Z,10.57
2023-08-18T21:45:12.940Z,9.05
2023-08-18T21:47:42.608Z,9.85
2023-08-18T21:50:14.150Z,9.45
2023-08-18T21:52:42.391Z,11.25
2023-08-18T21:55:11.300Z,12.30
2023-08-18T21:57:39.445Z,11.77
2023-08-18T22:00:11.178Z,12.52
2023-08-18T22:02:39.296Z,13.23
2023-08-18T22:05:08.140Z,13.70
2023-08-18T22:07:37.546Z,10.90
2023-08-18T22:10:07.157Z,14.10
2023-08-18T22:12:35.289Z,13.40
2023-08-18T22:15:06.728Z,13.65
2023-08-18T22:17:35.109Z,10.70
2023-08-18T22:20:07.347Z,11.55
2023-08-18T22:22:37.427Z,13.10
2023-08-18T22:25:06.462Z,14.88
2023-08-18T22:27:34.937Z,15.13
2023-08-18T22:30:03.786Z,13.80
2023-08-18T22:32:32.103Z,14.48
2023-08-18T22:35:00.662Z,15.30
2023-08-18T22:37:29.233Z,12.85
2023-08-18T22:39:58.857Z,12.50
2023-08-18T22:42:26.969Z,14.98
2023-08-18T22:44:55.185Z,13.05
2023-08-18T22:47:26.559Z,11.95
2023-08-18T22:49:55.112Z,14.95
2023-08-18T22:52:25.134Z,13.50
2023-08-18T22:54:53.322Z,13.02
2023-08-18T22:57:23.611Z,14.55
2023-08-18T22:59:52.097Z,13.82
2023-08-18T23:02:20.550Z,15.65
2023-08-18T23:04:49.436Z,15.95
2023-08-18T23:07:19.250Z,14.68
2023-08-18T23:09:49.041Z,15.68
2023-08-18T23:12:19.904Z,18.23
2023-08-18T23:14:51.415Z,17.85
2023-08-18T23:17:22.427Z,16.52
2023-08-18T23:19:52.269Z,17.00
2023-08-18T23:22:21.836Z,14.07
2023-08-18T23:24:52.240Z,14.95
2023-08-18T23:27:22.042Z,18.50
2023-08-18T23:29:53.424Z,13.68
2023-08-18T23:32:23.097Z,14.70
2023-08-18T23:34:53.803Z,15.48
2023-08-18T23:37:24.983Z,18.52
2023-08-18T23:39:55.164Z,15.32
2023-08-18T23:42:23.362Z,15.98
2023-08-18T23:44:52.835Z,14.82
2023-08-18T23:47:21.393Z,14.10
2023-08-18T23:49:49.549Z,14.82
2023-08-18T23:52:17.652Z,13.82
2023-08-18T23:54:45.869Z,13.80
2023-08-18T23:57:13.973Z,15.65
2023-08-18T23:59:42.436Z,14.80
